createdAt,value
2023-02-08T00:00:02.004Z,-4.04
2023-02-08T00:04:08.749Z,-4.02
2023-02-08T00:08:11.775Z,-4.02
2023-02-08T00:12:14.853Z,-4.08
2023-02-08T00:16:18.503Z,-4.07
2023-02-08T00:20:23.434Z,-4.08
2023-02-08T00:24:26.395Z,-4.11
2023-02-08T00:28:29.438Z,-4.12
2023-02-08T00:32:32.576Z,-4.11
2023-02-08T00:36:37.063Z,-4.17
2023-02-08T00:40:44.323Z,-4.21
2023-02-08T00:44:47.398Z,-4.28
2023-02-08T00:48:53.103Z,-4.37
2023-02-08T00:52:57.520Z,-4.38
2023-02-08T00:57:01.614Z,-4.38
2023-02-08T01:01:15.078Z,-4.35
2023-02-08T01:05:19.321Z,-4.39
2023-02-08T01:09:23.774Z,-4.40
2023-02-08T01:13:29.674Z,-4.39
2023-02-08T01:17:32.802Z,-4.40
2023-02-08T01:21:39.338Z,-4.39
2023-02-08T01:25:43.826Z,-4.40
2023-02-08T01:29:46.812Z,-4.42
2023-02-08T01:33:50.435Z,-4.47
2023-02-08T01:37:53.422Z,-4.53
2023-02-08T01:41:57.844Z,-4.56
2023-02-08T01:46:00.995Z,-4.60
2023-02-08T01:50:08.230Z,-4.65
2023-02-08T01:54:15.258Z,-4.67
2023-02-08T01:58:21.128Z,-4.68
2023-02-08T02:02:25.277Z,-4.71
2023-02-08T02:06:34.683Z,-4.75
2023-02-08T02:10:53.879Z,-4.80
2023-02-08T02:14:58.566Z,-4.85
2023-02-08T02:19:01.618Z,-4.88
2023-02-08T02:23:48.200Z,-4.90
2023-02-08T02:28:15.253Z,-4.92
2023-02-08T02:32:38.701Z,-4.91
2023-02-08T02:36:54.030Z,-4.91
2023-02-08T02:41:04.780Z,-4.93
2023-02-08T02:45:20.436Z,-4.95
2023-02-08T02:49:30.250Z,-4.98
2023-02-08T02:53:43.122Z,-5.04
2023-02-08T02:57:49.052Z,-5.05
2023-02-08T03:01:54.611Z,-5.06
2023-02-08T03:06:04.176Z,-5.07
2023-02-08T03:10:19.154Z,-5.06
2023-02-08T03:14:35.118Z,-5.08
2023-02-08T03:18:52.696Z,-5.12
2023-02-08T03:23:03.565Z,-5.16
2023-02-08T03:27:12.286Z,-5.17
2023-02-08T03:31:24.144Z,-5.19
2023-02-08T03:35:32.154Z,-5.22
2023-02-08T03:39:39.477Z,-5.24
2023-02-08T03:43:46.938Z,-5.27
2023-02-08T03:47:52.900Z,-5.28
2023-02-08T03:51:59.144Z,-5.32
2023-02-08T03:56:08.148Z,-5.35
2023-02-08T04:00:14.571Z,-5.35
2023-02-08T04:04:20.639Z,-5.36
2023-02-08T04:08:23.870Z,-5.37
2023-02-08T04:12:28.562Z,-5.34
2023-02-08T04:16:31.553Z,-5.35
2023-02-08T04:20:34.899Z,-5.36
2023-02-08T04:24:37.851Z,-5.36
2023-02-08T04:28:42.484Z,-5.35
2023-02-08T04:32:45.484Z,-5.35
2023-02-08T04:36:48.541Z,-5.36
2023-02-08T04:40:51.624Z,-5.36
2023-02-08T04:44:56.273Z,-5.37
2023-02-08T04:48:59.224Z,-5.39
2023-02-08T04:53:02.333Z,-5.41
2023-02-08T04:57:05.409Z,-5.43
2023-02-08T05:01:11.362Z,-5.47
2023-02-08T05:05:14.382Z,-5.51
2023-02-08T05:09:17.499Z,-5.53
2023-02-08T05:13:20.529Z,-5.54
2023-02-08T05:17:25.095Z,-5.58
2023-02-08T05:21:28.330Z,-5.61
2023-02-08T05:25:31.712Z,-5.65
2023-02-08T05:29:34.688Z,-5.67
2023-02-08T05:33:39.220Z,-5.66
2023-02-08T05:37:42.154Z,-5.64
2023-02-08T05:41:45.342Z,-5.65
2023-02-08T05:45:48.288Z,-5.67
2023-02-08T05:49:52.779Z,-5.67
2023-02-08T05:53:55.781Z,-5.68
2023-02-08T05:57:58.816Z,-5.70
2023-02-08T06:02:01.804Z,-5.72
2023-02-08T06:06:07.063Z,-5.74
2023-02-08T06:10:11.561Z,-5.80
2023-02-08T06:14:14.797Z,-5.84
2023-02-08T06:18:18.868Z,-5.87
2023-02-08T06:22:23.506Z,-5.87
2023-02-08T06:26:26.492Z,-5.86
2023-02-08T06:30:29.937Z,-5.83
2023-02-08T06:34:33.135Z,-5.83
2023-02-08T06:38:37.607Z,-5.57
2023-02-08T06:42:40.886Z,-5.51
2023-02-08T06:46:43.944Z,-5.53
2023-02-08T06:50:46.916Z,-5.56
2023-02-08T06:54:51.398Z,-5.56
2023-02-08T06:58:54.417Z,-5.56
2023-02-08T07:02:57.498Z,-5.56
2023-02-08T07:07:00.529Z,-5.59
2023-02-08T07:11:09.405Z,-5.58
2023-02-08T07:15:13.740Z,-5.56
2023-02-08T07:19:16.840Z,-5.55
2023-02-08T07:23:20.018Z,-5.52
2023-02-08T07:27:26.033Z,-5.49
2023-02-08T07:31:29.156Z,-5.48
2023-02-08T07:35:32.275Z,-5.43
2023-02-08T07:39:35.321Z,-5.39
2023-02-08T07:43:41.158Z,-5.34
2023-02-08T07:47:44.159Z,-5.33
2023-02-08T07:51:47.280Z,-5.30
2023-02-08T07:55:50.233Z,-5.30
2023-02-08T07:59:54.649Z,-5.26
2023-02-08T08:03:57.694Z,-5.18
2023-02-08T08:08:00.832Z,-5.10
2023-02-08T08:12:04.294Z,-5.01
2023-02-08T08:16:08.946Z,-4.94
2023-02-08T08:20:12.740Z,-4.94
2023-02-08T08:24:15.975Z,-4.92
2023-02-08T08:28:19.104Z,-4.89
2023-02-08T08:32:23.619Z,-4.88
2023-02-08T08:36:26.648Z,-4.84
2023-02-08T08:40:29.834Z,-4.74
2023-02-08T08:44:33.043Z,-4.66
2023-02-08T08:48:38.842Z,-4.56
2023-02-08T08:52:42.776Z,-4.41
2023-02-08T08:56:46.199Z,-4.30
2023-02-08T09:00:49.201Z,-4.23
2023-02-08T09:04:53.642Z,-4.20
2023-02-08T09:08:56.616Z,-4.09
2023-02-08T09:13:00.243Z,-4.02
2023-02-08T09:17:03.304Z,-3.98
2023-02-08T09:21:09.290Z,-3.82
2023-02-08T09:25:12.470Z,-3.73
2023-02-08T09:29:15.669Z,-3.69
2023-02-08T09:33:18.636Z,-3.58
2023-02-08T09:37:23.050Z,-3.49
2023-02-08T09:41:42.648Z,-3.45
2023-02-08T09:46:00.284Z,-3.36
2023-02-08T09:50:11.827Z,-3.27
2023-02-08T09:54:19.950Z,-3.22
2023-02-08T09:58:27.446Z,-3.22
2023-02-08T10:02:33.151Z,-3.15
2023-02-08T10:06:36.183Z,-3.07
2023-02-08T10:10:52.108Z,-3.02
2023-02-08T10:15:07.224Z,-2.99
2023-02-08T10:19:24.964Z,-2.87
2023-02-08T10:23:39.266Z,-2.83
2023-02-08T10:27:56.314Z,-2.72
2023-02-08T10:32:16.018Z,-2.59
2023-02-08T10:36:22.571Z,-2.53
2023-02-08T10:40:35.756Z,-2.50
2023-02-08T10:44:54.997Z,-2.45
2023-02-08T10:49:08.236Z,-2.40
2023-02-08T10:53:16.813Z,-2.28
2023-02-08T10:57:25.541Z,-2.21
2023-02-08T11:01:30.434Z,-2.17
2023-02-08T11:05:35.182Z,-2.01
2023-02-08T11:09:38.271Z,-1.89
2023-02-08T11:13:43.604Z,-1.83
2023-02-08T11:17:48.753Z,-1.83
2023-02-08T11:21:53.269Z,-1.76
2023-02-08T11:26:14.142Z,-1.69
2023-02-08T11:30:23.489Z,-1.63
2023-02-08T11:34:29.666Z,-1.52
2023-02-08T11:38:35.359Z,-1.57
2023-02-08T11:42:44.366Z,-1.55
2023-02-08T11:46:49.584Z,-1.57
2023-02-08T11:51:00.131Z,-1.49
2023-02-08T11:55:24.675Z,-1.45
2023-02-08T11:59:29.190Z,-1.40
2023-02-08T12:03:37.310Z,-1.32
2023-02-08T12:08:05.710Z,-1.31
2023-02-08T12:12:21.997Z,-1.21
2023-02-08T12:16:46.703Z,-1.17
2023-02-08T12:20:57.358Z,-1.17
2023-02-08T12:25:20.065Z,-1.15
2023-02-08T12:29:47.470Z,-1.10
2023-02-08T12:34:00.019Z,-1.00
2023-02-08T12:38:39.889Z,-1.00
2023-02-08T12:42:55.904Z,-0.96
2023-02-08T12:47:10.189Z,-0.97
2023-02-08T12:51:25.635Z,-0.97
2023-02-08T12:55:32.250Z,-0.93
2023-02-08T12:59:41.527Z,-0.88
2023-02-08T13:03:49.332Z,-0.85
2023-02-08T13:08:02.780Z,-0.83
2023-02-08T13:12:12.872Z,-0.77
2023-02-08T13:16:22.648Z,-0.74
2023-02-08T13:20:34.668Z,-0.62
2023-02-08T13:24:41.409Z,-0.51
2023-02-08T13:28:48.449Z,-0.45
2023-02-08T13:32:54.419Z,-0.40
2023-02-08T13:37:00.641Z,-0.38
2023-02-08T13:41:07.667Z,-0.37
2023-02-08T13:45:23.795Z,-0.29
2023-02-08T13:49:55.044Z,-0.30
2023-02-08T13:54:12.604Z,-0.23
2023-02-08T13:59:01.515Z,-0.19
2023-02-08T14:03:22.973Z,-0.15
2023-02-08T14:07:42.044Z,-0.13
2023-02-08T14:11:49.695Z,-0.18
2023-02-08T14:16:30.773Z,-0.20
2023-02-08T14:20:40.016Z,-0.17
2023-02-08T14:24:48.310Z,-0.14
2023-02-08T14:28:56.887Z,-0.09
2023-02-08T14:33:19.789Z,-0.07
2023-02-08T14:37:31.176Z,-0.09
2023-02-08T14:41:50.161Z,-0.08
2023-02-08T14:45:54.634Z,-0.06
2023-02-08T14:50:06.705Z,-0.10
2023-02-08T14:54:20.935Z,-0.12
2023-02-08T14:58:30.773Z,-0.12
2023-02-08T15:02:35.293Z,-0.08
2023-02-08T15:07:11.161Z,-0.11
2023-02-08T15:11:22.608Z,-0.09
2023-02-08T15:15:32.664Z,-0.08
2023-02-08T15:19:38.804Z,-0.04
2023-02-08T15:23:41.929Z,-0.01
2023-02-08T15:27:49.064Z,0.01
2023-02-08T15:31:54.471Z,0.01
2023-02-08T15:36:00.102Z,0.02
2023-02-08T15:40:04.667Z,0.07
2023-02-08T15:44:18.613Z,0.08
2023-02-08T15:48:23.167Z,0.01
2023-02-08T15:52:32.975Z,0.00
2023-02-08T15:56:42.368Z,-0.07
2023-02-08T16:00:47.359Z,-0.09
2023-02-08T16:04:52.321Z,0.22
2023-02-08T16:08:59.415Z,0.55
2023-02-08T16:13:05.599Z,0.88
2023-02-08T16:17:39.518Z,1.22
2023-02-08T16:21:44.104Z,1.14
2023-02-08T16:25:49.202Z,0.95
2023-02-08T16:29:52.448Z,0.80
2023-02-08T16:34:00.973Z,0.68
2023-02-08T16:38:10.130Z,0.55
2023-02-08T16:42:32.055Z,0.44
2023-02-08T16:46:45.126Z,0.34
2023-02-08T16:50:48.112Z,0.24
2023-02-08T16:54:52.536Z,0.12
2023-02-08T16:58:56.032Z,0.05
2023-02-08T17:02:59.195Z,-0.00
2023-02-08T17:07:02.334Z,-0.08
2023-02-08T17:11:06.786Z,-0.16
2023-02-08T17:15:10.224Z,-0.19
2023-02-08T17:19:17.946Z,-0.22
2023-02-08T17:23:21.356Z,-0.26
2023-02-08T17:27:26.773Z,-0.29
2023-02-08T17:31:30.457Z,-0.32
2023-02-08T17:35:34.451Z,-0.37
2023-02-08T17:39:37.400Z,-0.46
2023-02-08T17:43:42.011Z,-0.51
2023-02-08T17:47:45.024Z,-0.55
2023-02-08T17:51:48.080Z,-0.65
2023-02-08T17:55:51.216Z,-0.70
2023-02-08T17:59:55.842Z,-0.73
2023-02-08T18:04:01.077Z,-0.74
2023-02-08T18:08:04.370Z,-0.79
2023-02-08T18:12:07.953Z,-0.86
2023-02-08T18:16:14.505Z,-0.93
2023-02-08T18:20:18.200Z,-0.97
2023-02-08T18:24:21.212Z,-1.01
2023-02-08T18:28:24.436Z,-1.09
2023-02-08T18:32:29.744Z,-1.17
2023-02-08T18:36:32.711Z,-1.21
2023-02-08T18:40:35.744Z,-1.27
2023-02-08T18:44:39.513Z,-1.32
2023-02-08T18:48:44.689Z,-1.39
2023-02-08T18:52:50.013Z,-1.46
2023-02-08T18:56:55.925Z,-1.52
2023-02-08T19:01:06.233Z,-1.54
2023-02-08T19:05:10.798Z,-1.57
2023-02-08T19:09:14.002Z,-1.60
2023-02-08T19:13:17.033Z,-1.63
2023-02-08T19:17:20.449Z,-1.67
2023-02-08T19:21:25.204Z,-1.71
2023-02-08T19:25:28.187Z,-1.75
2023-02-08T19:29:33.279Z,-1.77
2023-02-08T19:33:36.567Z,-1.78
2023-02-08T19:37:42.454Z,-1.79
2023-02-08T19:41:46.480Z,-1.80
2023-02-08T19:45:49.573Z,-1.83
2023-02-08T19:49:52.670Z,-1.88
2023-02-08T19:53:58.123Z,-1.91
2023-02-08T19:58:01.140Z,-1.95
2023-02-08T20:02:04.860Z,-1.98
2023-02-08T20:06:15.310Z,-2.05
2023-02-08T20:10:19.961Z,-2.11
2023-02-08T20:14:23.100Z,-2.15
2023-02-08T20:18:26.616Z,-2.20
2023-02-08T20:22:29.617Z,-2.22
2023-02-08T20:26:34.111Z,-2.26
2023-02-08T20:30:37.147Z,-2.31
2023-02-08T20:34:47.455Z,-2.40
2023-02-08T20:38:59.473Z,-2.50
2023-02-08T20:43:03.868Z,-2.56
2023-02-08T20:47:07.022Z,-2.58
2023-02-08T20:51:12.419Z,-2.59
2023-02-08T20:55:15.425Z,-2.62
2023-02-08T20:59:20.039Z,-2.65
2023-02-08T21:03:23.373Z,-2.65
2023-02-08T21:07:26.739Z,-2.67
2023-02-08T21:11:31.397Z,-2.71
2023-02-08T21:15:36.192Z,-2.70
2023-02-08T21:19:40.021Z,-2.71
2023-02-08T21:23:44.336Z,-2.73
2023-02-08T21:27:47.362Z,-2.83
2023-02-08T21:31:54.414Z,-2.88
2023-02-08T21:35:58.308Z,-2.90
2023-02-08T21:40:01.416Z,-2.95
2023-02-08T21:44:08.242Z,-3.02
2023-02-08T21:48:12.795Z,-3.04
2023-02-08T21:52:41.654Z,-3.07
2023-02-08T21:56:44.736Z,-3.10
2023-02-08T22:00:47.705Z,-3.14
2023-02-08T22:04:53.855Z,-3.18
2023-02-08T22:08:56.846Z,-3.22
2023-02-08T22:13:00.296Z,-3.28
2023-02-08T22:17:03.368Z,-3.33
2023-02-08T22:21:08.363Z,-3.33
2023-02-08T22:25:11.387Z,-3.36
2023-02-08T22:29:14.462Z,-3.37
2023-02-08T22:33:17.622Z,-3.40
2023-02-08T22:37:22.058Z,-3.45
2023-02-08T22:41:25.116Z,-3.52
2023-02-08T22:45:28.201Z,-3.56
2023-02-08T22:49:31.213Z,-3.64
2023-02-08T22:53:35.853Z,-3.75
2023-02-08T22:57:38.967Z,-3.79
2023-02-08T23:01:42.202Z,-3.81
2023-02-08T23:05:47.822Z,-3.85
2023-02-08T23:09:52.340Z,-3.86
2023-02-08T23:13:55.723Z,-3.90
2023-02-08T23:17:59.290Z,-3.92
2023-02-08T23:22:02.276Z,-3.95
2023-02-08T23:26:07.795Z,-3.98
2023-02-08T23:30:11.936Z,-4.02
2023-02-08T23:34:15.090Z,-4.06
2023-02-08T23:38:18.105Z,-4.08
2023-02-08T23:42:28.457Z,-4.16
2023-02-08T23:46:31.743Z,-4.20
2023-02-08T23:50:35.165Z,-4.28
2023-02-08T23:54:38.490Z,-4.31
2023-02-08T23:58:43.757Z,-4.35
